wfrog 0.8.1 - Weather Dashboard - WMR100N - Kastelokampos, Patras, Greece.
2012-06-27 08:22:33
wfrog
24.7°C
Humidity 63 %
Pressure 1011.0 hPa
⌂  
26.5°C
63 %

Wind 35996.4 km/h
Gust 35996.4 km/h
Rain 9999 mm /h
 
Temperature and Dew Point
°C
Humidity
%
Pressure
Wind and Gusts
Wind Direction

Rain
Rain rate
mm /h
UV Index

                Temp. C         Humidity %     Pressure hPa       Rain mm        Wind km/h       UV     
             max   min   avg  max  min  avg   max   min   avg   fall   rate    avg    max  dir
2012/06/27  25.8  24.0  24.7  69%  60%  66%  1012  1011  1011      -      -      -      -      -    -
2012/06/26  28.1  24.5  26.4  67%  46%  58%  1012  1010  1011      -      -      -      -      -    -
2012/06/25  30.1  26.4  28.3  49%  29%  39%  1011  1009  1010      -      -      -      -      -    -
2012/06/24  29.5  25.7  27.3  51%  31%  41%  1013  1010  1012      -      -      -      -      -    -
2012/06/23  26.9  26.6  26.8  48%  32%  43%  1013  1011  1013      -      -      -      -      -    -
2012/06/22  26.6  25.8  26.1  33%  31%  32%  1009  1008  1009      -      -      -      -      -    -
2012/06/21  28.3  26.6  27.4  33%  30%  31%  1009  1008  1008      -      -      -      -      -    -
2012/06/14  24.7  22.9  23.8  59%  51%  54%  1011  1010  1011    0.0    0.0      -      -      -    -
2012/06/13  26.8  21.9  24.6  72%  42%  61%  1011  1009  1010    0.0    0.0      -      -      -    -
2012/06/12  25.8  21.9  24.1  77%  48%  63%  1010  1008  1009    0.0    0.0      -      -      -    -
2012/06/11  26.1  22.5  24.3  71%  45%  59%  1009  1007  1008    0.0    0.0      -      -      -    -
2012/06/10  26.5  22.4  24.8  71%  48%  63%  1012  1007  1009    0.0    0.0      -      -      -    -
2012/06/09  26.4  20.5  23.5  74%  45%  61%  1015  1011  1013    0.0    0.0    0.0    0.0    E    -
2012/06/08  24.2  20.1  22.3  85%  62%  69%  1014  1012  1013      -      -    0.2    1.8  WSW    -
2012/06/07  23.8  19.9  22.0  72%  58%  66%  1012  1011  1012      -      -    3.4   12.6  SSW    -
2012/06/06  23.2  19.7  21.6  65%  55%  61%  1011  1009  1010      -      -    5.5   22.3  SSW    -
2012/06/05  23.5  20.1  21.7  98%  43%  71%  1012  1007  1010      -      -    5.5   17.6   SW    -
2012/06/04  23.7  19.3  21.8  74%  42%  59%  1016  1011  1014      -      -    0.5    5.8   SW    -
2012/06/03  23.3  18.9  21.4  75%  43%  64%  1017  1015  1016      -      -    1.9   11.2   SW    -
2012/06/02  23.1  18.6  21.1  78%  50%  65%  1017  1014  1016      -      -    0.9    7.2  SSW    -
2012/06/01  22.6  18.8  20.8  80%  57%  68%  1016  1013  1015      -      -      -      -      -    -
2012/05/31  21.9  17.3  19.9  75%  62%  69%  1016  1014  1015      -      -      -      -      -    -
2012/05/30  21.1  17.1  19.3  80%  58%  68%  1015  1011  1013      -      -    5.3   17.6   SW    -
2012/05/29  20.0  18.6  19.2  76%  59%  68%  1011  1010  1011      -      -    5.2   15.1   SW    -
2012/05/28  21.0  18.5  19.8  81%  57%  69%  1011  1010  1011      -      -    5.7   15.8  SSW    -
2012/05/27  21.3  17.9  19.8  83%  72%  78%  1014  1010  1012      -      -    1.8   11.5   SW    -
2012/05/26  21.0  17.9  19.7  89%  77%  83%  1014  1012  1013      -      -    2.5   13.0  SSW    -